sensor_id;sensor_type;location;lat;lon;timestamp;P1;durP1;ratioP1;P2;durP2;ratioP2
13012;SDS011;22580;57.670;12.006;2024-03-29T00:00:21;2.33;;;2.00;;
13012;SDS011;22580;57.670;12.006;2024-03-29T00:02:47;1.63;;;1.53;;
13012;SDS011;22580;57.670;12.006;2024-03-29T00:05:14;1.77;;;1.60;;
13012;SDS011;22580;57.670;12.006;2024-03-29T00:07:42;1.67;;;1.57;;
13012;SDS011;22580;57.670;12.006;2024-03-29T00:10:08;1.53;;;1.43;;
13012;SDS011;22580;57.670;12.006;2024-03-29T00:12:35;1.43;;;1.33;;
13012;SDS011;22580;57.670;12.006;2024-03-29T00:15:01;1.63;;;1.53;;
13012;SDS011;22580;57.670;12.006;2024-03-29T00:17:27;1.20;;;1.20;;
13012;SDS011;22580;57.670;12.006;2024-03-29T00:19:55;1.93;;;1.37;;
13012;SDS011;22580;57.670;12.006;2024-03-29T00:22:21;1.50;;;1.40;;
13012;SDS011;22580;57.670;12.006;2024-03-29T00:24:50;1.70;;;1.60;;
13012;SDS011;22580;57.670;12.006;2024-03-29T00:27:16;1.40;;;1.30;;
13012;SDS011;22580;57.670;12.006;2024-03-29T00:29:45;2.03;;;1.83;;
13012;SDS011;22580;57.670;12.006;2024-03-29T00:32:17;2.27;;;2.07;;
13012;SDS011;22580;57.670;12.006;2024-03-29T00:34:43;2.00;;;1.90;;
13012;SDS011;22580;57.670;12.006;2024-03-29T00:37:10;1.93;;;1.83;;
13012;SDS011;22580;57.670;12.006;2024-03-29T00:39:36;2.03;;;1.63;;
13012;SDS011;22580;57.670;12.006;2024-03-29T00:42:04;1.50;;;1.40;;
13012;SDS011;22580;57.670;12.006;2024-03-29T00:44:30;2.00;;;1.80;;
13012;SDS011;22580;57.670;12.006;2024-03-29T00:46:56;2.50;;;2.30;;
13012;SDS011;22580;57.670;12.006;2024-03-29T00:49:23;2.20;;;2.00;;
13012;SDS011;22580;57.670;12.006;2024-03-29T00:51:49;2.40;;;2.20;;
13012;SDS011;22580;57.670;12.006;2024-03-29T00:54:15;3.67;;;2.93;;
13012;SDS011;22580;57.670;12.006;2024-03-29T00:56:41;2.30;;;2.10;;
13012;SDS011;22580;57.670;12.006;2024-03-29T00:59:10;1.70;;;1.60;;
13012;SDS011;22580;57.670;12.006;2024-03-29T01:01:36;1.93;;;1.73;;
13012;SDS011;22580;57.670;12.006;2024-03-29T01:04:02;4.10;;;2.70;;
13012;SDS011;22580;57.670;12.006;2024-03-29T01:06:29;2.50;;;2.30;;
13012;SDS011;22580;57.670;12.006;2024-03-29T01:08:55;2.70;;;2.27;;
13012;SDS011;22580;57.670;12.006;2024-03-29T01:11:21;2.07;;;1.97;;
13012;SDS011;22580;57.670;12.006;2024-03-29T01:13:47;2.60;;;2.40;;
13012;SDS011;22580;57.670;12.006;2024-03-29T01:16:15;2.47;;;2.27;;
13012;SDS011;22580;57.670;12.006;2024-03-29T01:18:41;2.00;;;1.90;;
13012;SDS011;22580;57.670;12.006;2024-03-29T01:21:07;2.43;;;2.23;;
13012;SDS011;22580;57.670;12.006;2024-03-29T01:23:35;2.60;;;2.17;;
13012;SDS011;22580;57.670;12.006;2024-03-29T01:26:01;2.90;;;2.60;;
13012;SDS011;22580;57.670;12.006;2024-03-29T01:28:27;2.70;;;2.50;;
13012;SDS011;22580;57.670;12.006;2024-03-29T01:30:54;4.27;;;3.40;;
13012;SDS011;22580;57.670;12.006;2024-03-29T01:33:22;4.20;;;3.23;;
13012;SDS011;22580;57.670;12.006;2024-03-29T01:35:47;3.73;;;3.23;;
13012;SDS011;22580;57.670;12.006;2024-03-29T01:38:15;4.00;;;3.60;;
13012;SDS011;22580;57.670;12.006;2024-03-29T01:40:41;3.90;;;3.50;;
13012;SDS011;22580;57.670;12.006;2024-03-29T01:43:07;3.70;;;3.40;;
13012;SDS011;22580;57.670;12.006;2024-03-29T01:45:35;4.33;;;3.57;;
13012;SDS011;22580;57.670;12.006;2024-03-29T01:48:05;3.20;;;2.90;;
13012;SDS011;22580;57.670;12.006;2024-03-29T01:50:34;2.80;;;2.60;;
13012;SDS011;22580;57.670;12.006;2024-03-29T01:53:02;3.00;;;2.70;;
13012;SDS011;22580;57.670;12.006;2024-03-29T01:55:30;3.47;;;3.17;;
13012;SDS011;22580;57.670;12.006;2024-03-29T01:57:57;3.03;;;2.73;;
13012;SDS011;22580;57.670;12.006;2024-03-29T02:00:25;3.43;;;3.07;;
13012;SDS011;22580;57.670;12.006;2024-03-29T02:02:55;3.17;;;2.73;;
13012;SDS011;22580;57.670;12.006;2024-03-29T02:05:24;3.20;;;2.90;;
13012;SDS011;22580;57.670;12.006;2024-03-29T02:07:54;2.40;;;2.20;;
13012;SDS011;22580;57.670;12.006;2024-03-29T02:10:22;1.90;;;1.80;;
13012;SDS011;22580;57.670;12.006;2024-03-29T02:12:50;2.70;;;2.50;;
13012;SDS011;22580;57.670;12.006;2024-03-29T02:15:17;2.37;;;2.17;;
13012;SDS011;22580;57.670;12.006;2024-03-29T02:17:44;2.40;;;2.20;;
13012;SDS011;22580;57.670;12.006;2024-03-29T02:20:11;1.77;;;1.67;;
13012;SDS011;22580;57.670;12.006;2024-03-29T02:22:41;2.40;;;2.20;;
13012;SDS011;22580;57.670;12.006;2024-03-29T02:25:16;2.37;;;2.17;;
13012;SDS011;22580;57.670;12.006;2024-03-29T02:27:43;1.93;;;1.73;;
13012;SDS011;22580;57.670;12.006;2024-03-29T02:30:12;2.33;;;1.90;;
13012;SDS011;22580;57.670;12.006;2024-03-29T02:32:40;2.00;;;1.80;;
13012;SDS011;22580;57.670;12.006;2024-03-29T02:35:07;2.50;;;2.30;;
13012;SDS011;22580;57.670;12.006;2024-03-29T02:37:35;2.33;;;1.90;;
13012;SDS011;22580;57.670;12.006;2024-03-29T02:40:03;2.10;;;2.00;;
13012;SDS011;22580;57.670;12.006;2024-03-29T02:42:33;2.30;;;2.13;;
13012;SDS011;22580;57.670;12.006;2024-03-29T02:45:01;1.50;;;1.40;;
13012;SDS011;22580;57.670;12.006;2024-03-29T02:47:28;1.90;;;1.80;;
13012;SDS011;22580;57.670;12.006;2024-03-29T02:49:57;1.87;;;1.60;;
13012;SDS011;22580;57.670;12.006;2024-03-29T02:52:23;1.53;;;1.43;;
13012;SDS011;22580;57.670;12.006;2024-03-29T02:54:50;1.70;;;1.60;;
13012;SDS011;22580;57.670;12.006;2024-03-29T02:57:17;2.50;;;1.50;;
13012;SDS011;22580;57.670;12.006;2024-03-29T02:59:45;1.60;;;1.50;;
13012;SDS011;22580;57.670;12.006;2024-03-29T03:02:11;1.50;;;1.40;;
13012;SDS011;22580;57.670;12.006;2024-03-29T03:04:44;1.63;;;1.20;;
13012;SDS011;22580;57.670;12.006;2024-03-29T03:07:10;1.23;;;1.10;;
13012;SDS011;22580;57.670;12.006;2024-03-29T03:09:56;1.20;;;1.10;;
13012;SDS011;22580;57.670;12.006;2024-03-29T03:12:40;2.87;;;1.63;;
13012;SDS011;22580;57.670;12.006;2024-03-29T03:15:09;1.27;;;1.17;;
13012;SDS011;22580;57.670;12.006;2024-03-29T03:17:37;1.17;;;0.90;;
13012;SDS011;22580;57.670;12.006;2024-03-29T03:20:03;1.00;;;1.00;;
13012;SDS011;22580;57.670;12.006;2024-03-29T03:22:32;1.67;;;1.23;;
13012;SDS011;22580;57.670;12.006;2024-03-29T03:24:57;1.77;;;1.00;;
13012;SDS011;22580;57.670;12.006;2024-03-29T03:27:25;1.97;;;1.27;;
13012;SDS011;22580;57.670;12.006;2024-03-29T03:29:50;1.30;;;0.80;;
13012;SDS011;22580;57.670;12.006;2024-03-29T03:32:20;1.17;;;0.97;;
13012;SDS011;22580;57.670;12.006;2024-03-29T03:34:46;0.77;;;0.63;;
13012;SDS011;22580;57.670;12.006;2024-03-29T03:37:13;0.90;;;0.60;;
13012;SDS011;22580;57.670;12.006;2024-03-29T03:39:39;1.57;;;0.63;;
13012;SDS011;22580;57.670;12.006;2024-03-29T03:42:06;0.77;;;0.63;;
13012;SDS011;22580;57.670;12.006;2024-03-29T03:44:33;2.10;;;0.97;;
13012;SDS011;22580;57.670;12.006;2024-03-29T03:47:00;1.27;;;0.50;;
13012;SDS011;22580;57.670;12.006;2024-03-29T03:49:28;1.27;;;0.50;;
13012;SDS011;22580;57.670;12.006;2024-03-29T03:51:55;0.40;;;0.40;;
13012;SDS011;22580;57.670;12.006;2024-03-29T03:54:24;1.40;;;0.57;;
13012;SDS011;22580;57.670;12.006;2024-03-29T03:56:51;1.13;;;0.50;;
13012;SDS011;22580;57.670;12.006;2024-03-29T03:59:20;0.73;;;0.43;;
13012;SDS011;22580;57.670;12.006;2024-03-29T04:01:52;2.07;;;1.10;;
13012;SDS011;22580;57.670;12.006;2024-03-29T04:04:19;0.97;;;0.60;;
13012;SDS011;22580;57.670;12.006;2024-03-29T04:06:48;0.97;;;0.60;;
13012;SDS011;22580;57.670;12.006;2024-03-29T04:09:14;0.80;;;0.60;;
13012;SDS011;22580;57.670;12.006;2024-03-29T04:11:43;1.73;;;0.53;;
13012;SDS011;22580;57.670;12.006;2024-03-29T04:14:09;0.50;;;0.50;;
13012;SDS011;22580;57.670;12.006;2024-03-29T04:16:36;1.03;;;0.50;;
13012;SDS011;22580;57.670;12.006;2024-03-29T04:19:06;1.13;;;0.40;;
13012;SDS011;22580;57.670;12.006;2024-03-29T04:21:33;0.40;;;0.40;;
13012;SDS011;22580;57.670;12.006;2024-03-29T04:24:01;1.23;;;0.50;;
13012;SDS011;22580;57.670;12.006;2024-03-29T04:26:28;0.50;;;0.50;;
13012;SDS011;22580;57.670;12.006;2024-03-29T04:28:56;0.60;;;0.60;;
13012;SDS011;22580;57.670;12.006;2024-03-29T04:31:24;0.53;;;0.47;;
13012;SDS011;22580;57.670;12.006;2024-03-29T04:33:50;0.60;;;0.60;;
13012;SDS011;22580;57.670;12.006;2024-03-29T04:36:17;0.90;;;0.50;;
13012;SDS011;22580;57.670;12.006;2024-03-29T04:38:43;0.47;;;0.33;;
13012;SDS011;22580;57.670;12.006;2024-03-29T04:41:12;0.40;;;0.40;;
13012;SDS011;22580;57.670;12.006;2024-03-29T04:43:44;0.53;;;0.40;;
13012;SDS011;22580;57.670;12.006;2024-03-29T04:46:12;1.40;;;0.40;;
13012;SDS011;22580;57.670;12.006;2024-03-29T04:48:40;0.30;;;0.30;;
13012;SDS011;22580;57.670;12.006;2024-03-29T04:51:10;0.63;;;0.30;;
13012;SDS011;22580;57.670;12.006;2024-03-29T04:53:40;0.20;;;0.20;;
13012;SDS011;22580;57.670;12.006;2024-03-29T04:56:08;0.93;;;0.10;;
13012;SDS011;22580;57.670;12.006;2024-03-29T04:58:39;0.40;;;0.40;;
13012;SDS011;22580;57.670;12.006;2024-03-29T05:01:07;0.50;;;0.30;;
13012;SDS011;22580;57.670;12.006;2024-03-29T05:03:34;0.40;;;0.33;;
13012;SDS011;22580;57.670;12.006;2024-03-29T05:06:02;0.40;;;0.33;;
13012;SDS011;22580;57.670;12.006;2024-03-29T05:08:29;0.30;;;0.30;;
13012;SDS011;22580;57.670;12.006;2024-03-29T05:10:56;0.20;;;0.20;;
13012;SDS011;22580;57.670;12.006;2024-03-29T05:13:26;0.57;;;0.40;;
13012;SDS011;22580;57.670;12.006;2024-03-29T05:15:54;0.50;;;0.40;;
13012;SDS011;22580;57.670;12.006;2024-03-29T05:18:21;0.57;;;0.30;;
13012;SDS011;22580;57.670;12.006;2024-03-29T05:20:48;0.20;;;0.10;;
13012;SDS011;22580;57.670;12.006;2024-03-29T05:23:16;0.67;;;0.40;;
13012;SDS011;22580;57.670;12.006;2024-03-29T05:25:43;0.40;;;0.40;;
13012;SDS011;22580;57.670;12.006;2024-03-29T05:28:10;0.53;;;0.53;;
13012;SDS011;22580;57.670;12.006;2024-03-29T05:30:39;0.43;;;0.43;;
13012;SDS011;22580;57.670;12.006;2024-03-29T05:33:06;0.50;;;0.40;;
13012;SDS011;22580;57.670;12.006;2024-03-29T05:35:33;0.40;;;0.40;;
13012;SDS011;22580;57.670;12.006;2024-03-29T05:38:00;0.97;;;0.30;;
13012;SDS011;22580;57.670;12.006;2024-03-29T05:40:27;0.50;;;0.20;;
13012;SDS011;22580;57.670;12.006;2024-03-29T05:42:54;0.57;;;0.40;;
13012;SDS011;22580;57.670;12.006;2024-03-29T05:45:22;0.30;;;0.30;;
13012;SDS011;22580;57.670;12.006;2024-03-29T05:47:53;0.30;;;0.30;;
13012;SDS011;22580;57.670;12.006;2024-03-29T05:50:21;0.67;;;0.37;;
13012;SDS011;22580;57.670;12.006;2024-03-29T05:52:49;0.20;;;0.20;;
13012;SDS011;22580;57.670;12.006;2024-03-29T05:55:17;0.60;;;0.30;;
13012;SDS011;22580;57.670;12.006;2024-03-29T05:57:44;0.30;;;0.30;;
13012;SDS011;22580;57.670;12.006;2024-03-29T06:00:13;0.77;;;0.40;;
13012;SDS011;22580;57.670;12.006;2024-03-29T06:02:41;0.37;;;0.37;;
13012;SDS011;22580;57.670;12.006;2024-03-29T06:05:12;1.00;;;0.50;;
13012;SDS011;22580;57.670;12.006;2024-03-29T06:07:39;0.57;;;0.50;;
13012;SDS011;22580;57.670;12.006;2024-03-29T06:10:07;0.83;;;0.50;;
13012;SDS011;22580;57.670;12.006;2024-03-29T06:12:35;1.33;;;0.60;;
13012;SDS011;22580;57.670;12.006;2024-03-29T06:15:10;0.40;;;0.40;;
13012;SDS011;22580;57.670;12.006;2024-03-29T06:17:54;1.53;;;0.70;;
13012;SDS011;22580;57.670;12.006;2024-03-29T06:20:24;1.27;;;0.50;;
13012;SDS011;22580;57.670;12.006;2024-03-29T06:22:51;0.40;;;0.40;;
13012;SDS011;22580;57.670;12.006;2024-03-29T06:25:18;0.40;;;0.40;;
13012;SDS011;22580;57.670;12.006;2024-03-29T06:27:48;0.50;;;0.50;;
13012;SDS011;22580;57.670;12.006;2024-03-29T06:30:15;0.60;;;0.50;;
13012;SDS011;22580;57.670;12.006;2024-03-29T06:32:42;1.20;;;0.70;;
13012;SDS011;22580;57.670;12.006;2024-03-29T06:35:10;1.60;;;0.70;;
13012;SDS011;22580;57.670;12.006;2024-03-29T06:37:39;0.90;;;0.90;;
13012;SDS011;22580;57.670;12.006;2024-03-29T06:40:07;1.00;;;0.70;;
13012;SDS011;22580;57.670;12.006;2024-03-29T06:42:35;0.80;;;0.80;;
13012;SDS011;22580;57.670;12.006;2024-03-29T06:45:02;1.53;;;0.80;;
13012;SDS011;22580;57.670;12.006;2024-03-29T06:47:30;1.23;;;0.90;;
13012;SDS011;22580;57.670;12.006;2024-03-29T06:49:59;0.90;;;0.90;;
13012;SDS011;22580;57.670;12.006;2024-03-29T06:52:26;0.97;;;0.90;;
13012;SDS011;22580;57.670;12.006;2024-03-29T06:54:55;1.40;;;1.17;;
13012;SDS011;22580;57.670;12.006;2024-03-29T06:57:22;1.30;;;1.20;;
13012;SDS011;22580;57.670;12.006;2024-03-29T06:59:51;1.50;;;1.40;;
13012;SDS011;22580;57.670;12.006;2024-03-29T07:02:18;1.70;;;1.60;;
13012;SDS011;22580;57.670;12.006;2024-03-29T07:04:44;1.93;;;1.60;;
13012;SDS011;22580;57.670;12.006;2024-03-29T07:07:11;2.77;;;2.53;;
13012;SDS011;22580;57.670;12.006;2024-03-29T07:09:38;2.30;;;2.10;;
13012;SDS011;22580;57.670;12.006;2024-03-29T07:12:07;2.47;;;2.27;;
13012;SDS011;22580;57.670;12.006;2024-03-29T07:14:34;1.97;;;1.87;;
13012;SDS011;22580;57.670;12.006;2024-03-29T07:17:01;3.07;;;2.77;;
13012;SDS011;22580;57.670;12.006;2024-03-29T07:19:28;3.10;;;2.80;;
13012;SDS011;22580;57.670;12.006;2024-03-29T07:21:55;3.63;;;3.13;;
13012;SDS011;22580;57.670;12.006;2024-03-29T07:24:22;3.63;;;3.30;;
13012;SDS011;22580;57.670;12.006;2024-03-29T07:26:49;3.00;;;2.70;;
13012;SDS011;22580;57.670;12.006;2024-03-29T07:29:18;4.23;;;3.80;;
13012;SDS011;22580;57.670;12.006;2024-03-29T07:31:45;4.77;;;4.07;;
13012;SDS011;22580;57.670;12.006;2024-03-29T07:34:12;3.20;;;2.90;;
13012;SDS011;22580;57.670;12.006;2024-03-29T07:36:39;3.53;;;3.10;;
13012;SDS011;22580;57.670;12.006;2024-03-29T07:39:06;2.60;;;2.40;;
13012;SDS011;22580;57.670;12.006;2024-03-29T07:41:33;3.23;;;2.57;;
13012;SDS011;22580;57.670;12.006;2024-03-29T07:44:00;3.20;;;2.90;;
13012;SDS011;22580;57.670;12.006;2024-03-29T07:46:31;2.67;;;2.47;;
13012;SDS011;22580;57.670;12.006;2024-03-29T07:48:59;3.17;;;2.60;;
13012;SDS011;22580;57.670;12.006;2024-03-29T07:51:26;3.20;;;2.90;;
13012;SDS011;22580;57.670;12.006;2024-03-29T07:53:53;3.23;;;2.90;;
13012;SDS011;22580;57.670;12.006;2024-03-29T07:56:20;4.87;;;3.10;;
13012;SDS011;22580;57.670;12.006;2024-03-29T07:58:50;2.60;;;2.40;;
13012;SDS011;22580;57.670;12.006;2024-03-29T08:01:18;2.90;;;2.70;;
13012;SDS011;22580;57.670;12.006;2024-03-29T08:03:49;3.60;;;3.30;;
13012;SDS011;22580;57.670;12.006;2024-03-29T08:06:18;3.47;;;3.17;;
13012;SDS011;22580;57.670;12.006;2024-03-29T08:08:45;4.40;;;4.00;;
13012;SDS011;22580;57.670;12.006;2024-03-29T08:11:12;4.90;;;4.23;;
13012;SDS011;22580;57.670;12.006;2024-03-29T08:16:07;4.03;;;3.50;;
13012;SDS011;22580;57.670;12.006;2024-03-29T08:18:36;2.80;;;2.60;;
13012;SDS011;22580;57.670;12.006;2024-03-29T08:21:04;2.80;;;2.60;;
13012;SDS011;22580;57.670;12.006;2024-03-29T08:23:37;4.13;;;3.27;;
13012;SDS011;22580;57.670;12.006;2024-03-29T08:26:05;3.00;;;2.70;;
13012;SDS011;22580;57.670;12.006;2024-03-29T08:28:32;2.43;;;2.23;;
13012;SDS011;22580;57.670;12.006;2024-03-29T08:31:01;3.57;;;2.90;;
13012;SDS011;22580;57.670;12.006;2024-03-29T08:33:29;3.10;;;2.80;;
13012;SDS011;22580;57.670;12.006;2024-03-29T08:35:56;3.27;;;2.90;;
13012;SDS011;22580;57.670;12.006;2024-03-29T08:38:26;2.10;;;2.00;;
13012;SDS011;22580;57.670;12.006;2024-03-29T08:40:53;3.00;;;2.77;;
13012;SDS011;22580;57.670;12.006;2024-03-29T08:43:19;3.97;;;3.27;;
13012;SDS011;22580;57.670;12.006;2024-03-29T08:45:46;2.93;;;2.60;;
13012;SDS011;22580;57.670;12.006;2024-03-29T08:48:13;2.30;;;2.10;;
13012;SDS011;22580;57.670;12.006;2024-03-29T08:50:41;2.00;;;1.90;;
13012;SDS011;22580;57.670;12.006;2024-03-29T08:53:11;2.37;;;2.03;;
13012;SDS011;22580;57.670;12.006;2024-03-29T08:55:40;1.90;;;1.80;;
13012;SDS011;22580;57.670;12.006;2024-03-29T08:58:06;1.67;;;1.57;;
13012;SDS011;22580;57.670;12.006;2024-03-29T09:00:33;2.83;;;2.07;;
13012;SDS011;22580;57.670;12.006;2024-03-29T09:03:00;1.50;;;1.40;;
13012;SDS011;22580;57.670;12.006;2024-03-29T09:05:27;2.07;;;1.77;;
13012;SDS011;22580;57.670;12.006;2024-03-29T09:07:54;1.83;;;1.73;;
13012;SDS011;22580;57.670;12.006;2024-03-29T09:10:22;1.80;;;1.70;;
13012;SDS011;22580;57.670;12.006;2024-03-29T09:12:51;1.50;;;1.40;;
13012;SDS011;22580;57.670;12.006;2024-03-29T09:15:17;1.87;;;1.73;;
13012;SDS011;22580;57.670;12.006;2024-03-29T09:17:45;1.63;;;1.53;;
13012;SDS011;22580;57.670;12.006;2024-03-29T09:20:12;1.63;;;1.47;;
13012;SDS011;22580;57.670;12.006;2024-03-29T09:22:39;1.50;;;1.40;;
13012;SDS011;22580;57.670;12.006;2024-03-29T09:25:06;1.67;;;1.57;;
13012;SDS011;22580;57.670;12.006;2024-03-29T09:27:38;1.73;;;1.40;;
13012;SDS011;22580;57.670;12.006;2024-03-29T09:30:10;1.17;;;1.10;;
13012;SDS011;22580;57.670;12.006;2024-03-29T09:32:37;0.90;;;0.90;;
13012;SDS011;22580;57.670;12.006;2024-03-29T09:35:04;0.77;;;0.77;;
13012;SDS011;22580;57.670;12.006;2024-03-29T09:37:32;0.77;;;0.77;;
13012;SDS011;22580;57.670;12.006;2024-03-29T09:40:01;0.80;;;0.80;;
13012;SDS011;22580;57.670;12.006;2024-03-29T09:42:29;0.37;;;0.37;;
13012;SDS011;22580;57.670;12.006;2024-03-29T09:44:58;0.63;;;0.63;;
13012;SDS011;22580;57.670;12.006;2024-03-29T09:47:29;1.17;;;0.90;;
13012;SDS011;22580;57.670;12.006;2024-03-29T09:49:58;1.33;;;0.90;;
13012;SDS011;22580;57.670;12.006;2024-03-29T09:52:28;0.77;;;0.77;;
13012;SDS011;22580;57.670;12.006;2024-03-29T09:54:55;1.07;;;0.97;;
13012;SDS011;22580;57.670;12.006;2024-03-29T09:57:23;1.80;;;1.30;;
13012;SDS011;22580;57.670;12.006;2024-03-29T09:59:54;1.23;;;1.10;;
13012;SDS011;22580;57.670;12.006;2024-03-29T10:02:21;1.70;;;1.60;;
13012;SDS011;22580;57.670;12.006;2024-03-29T10:04:55;1.60;;;1.50;;
13012;SDS011;22580;57.670;12.006;2024-03-29T10:07:24;1.73;;;1.63;;
13012;SDS011;22580;57.670;12.006;2024-03-29T10:09:50;1.87;;;1.40;;
13012;SDS011;22580;57.670;12.006;2024-03-29T10:12:17;1.90;;;1.80;;
13012;SDS011;22580;57.670;12.006;2024-03-29T10:14:44;1.53;;;1.43;;
13012;SDS011;22580;57.670;12.006;2024-03-29T10:17:17;2.27;;;1.73;;
13012;SDS011;22580;57.670;12.006;2024-03-29T10:19:44;2.07;;;1.87;;
13012;SDS011;22580;57.670;12.006;2024-03-29T10:22:12;2.07;;;1.83;;
13012;SDS011;22580;57.670;12.006;2024-03-29T10:24:39;2.30;;;2.10;;
13012;SDS011;22580;57.670;12.006;2024-03-29T10:27:07;2.50;;;1.87;;
13012;SDS011;22580;57.670;12.006;2024-03-29T10:29:34;1.90;;;1.80;;
13012;SDS011;22580;57.670;12.006;2024-03-29T10:32:01;2.00;;;1.77;;
13012;SDS011;22580;57.670;12.006;2024-03-29T10:34:29;1.80;;;1.40;;
13012;SDS011;22580;57.670;12.006;2024-03-29T10:37:00;1.80;;;1.27;;
13012;SDS011;22580;57.670;12.006;2024-03-29T10:39:30;1.97;;;1.70;;
13012;SDS011;22580;57.670;12.006;2024-03-29T10:41:59;1.53;;;1.43;;
13012;SDS011;22580;57.670;12.006;2024-03-29T10:44:28;1.40;;;1.30;;
13012;SDS011;22580;57.670;12.006;2024-03-29T10:46:56;1.57;;;1.20;;
13012;SDS011;22580;57.670;12.006;2024-03-29T10:49:24;1.97;;;1.50;;
13012;SDS011;22580;57.670;12.006;2024-03-29T10:51:51;1.37;;;1.03;;
13012;SDS011;22580;57.670;12.006;2024-03-29T10:54:22;2.47;;;1.00;;
13012;SDS011;22580;57.670;12.006;2024-03-29T10:56:51;1.10;;;1.00;;
13012;SDS011;22580;57.670;12.006;2024-03-29T10:59:27;0.90;;;0.90;;
13012;SDS011;22580;57.670;12.006;2024-03-29T11:02:03;1.43;;;1.20;;
13012;SDS011;22580;57.670;12.006;2024-03-29T11:04:39;1.10;;;1.00;;
13012;SDS011;22580;57.670;12.006;2024-03-29T11:07:11;1.10;;;1.00;;
13012;SDS011;22580;57.670;12.006;2024-03-29T11:09:44;1.00;;;1.00;;
13012;SDS011;22580;57.670;12.006;2024-03-29T11:12:17;1.27;;;1.00;;
13012;SDS011;22580;57.670;12.006;2024-03-29T11:14:49;1.83;;;1.20;;
13012;SDS011;22580;57.670;12.006;2024-03-29T11:17:26;1.63;;;1.10;;
13012;SDS011;22580;57.670;12.006;2024-03-29T11:19:54;1.87;;;1.33;;
13012;SDS011;22580;57.670;12.006;2024-03-29T11:22:21;1.20;;;1.10;;
13012;SDS011;22580;57.670;12.006;2024-03-29T11:24:50;1.80;;;1.23;;
13012;SDS011;22580;57.670;12.006;2024-03-29T11:27:19;1.40;;;1.30;;
13012;SDS011;22580;57.670;12.006;2024-03-29T11:29:49;1.40;;;1.30;;
13012;SDS011;22580;57.670;12.006;2024-03-29T11:32:33;0.80;;;0.80;;
13012;SDS011;22580;57.670;12.006;2024-03-29T11:35:00;1.40;;;1.30;;
13012;SDS011;22580;57.670;12.006;2024-03-29T11:37:29;1.40;;;0.97;;
13012;SDS011;22580;57.670;12.006;2024-03-29T11:39:58;1.10;;;1.00;;
13012;SDS011;22580;57.670;12.006;2024-03-29T11:42:37;1.20;;;1.10;;
13012;SDS011;22580;57.670;12.006;2024-03-29T11:45:05;0.77;;;0.73;;
13012;SDS011;22580;57.670;12.006;2024-03-29T11:47:35;1.30;;;0.87;;
13012;SDS011;22580;57.670;12.006;2024-03-29T11:50:03;0.80;;;0.80;;
13012;SDS011;22580;57.670;12.006;2024-03-29T11:52:31;0.60;;;0.60;;
13012;SDS011;22580;57.670;12.006;2024-03-29T11:54:58;0.90;;;0.90;;
13012;SDS011;22580;57.670;12.006;2024-03-29T11:57:25;0.80;;;0.80;;
13012;SDS011;22580;57.670;12.006;2024-03-29T11:59:55;0.80;;;0.70;;
13012;SDS011;22580;57.670;12.006;2024-03-29T12:02:22;0.60;;;0.60;;
13012;SDS011;22580;57.670;12.006;2024-03-29T12:04:49;1.23;;;1.13;;
13012;SDS011;22580;57.670;12.006;2024-03-29T12:07:16;1.10;;;1.00;;
13012;SDS011;22580;57.670;12.006;2024-03-29T12:09:46;1.30;;;1.20;;
13012;SDS011;22580;57.670;12.006;2024-03-29T12:12:14;1.23;;;0.80;;
13012;SDS011;22580;57.670;12.006;2024-03-29T12:14:42;0.80;;;0.80;;
13012;SDS011;22580;57.670;12.006;2024-03-29T12:17:11;0.80;;;0.80;;
13012;SDS011;22580;57.670;12.006;2024-03-29T12:19:38;2.20;;;0.87;;
13012;SDS011;22580;57.670;12.006;2024-03-29T12:22:07;0.87;;;0.70;;
13012;SDS011;22580;57.670;12.006;2024-03-29T12:24:35;1.03;;;0.97;;
13012;SDS011;22580;57.670;12.006;2024-03-29T12:27:02;1.33;;;1.00;;
13012;SDS011;22580;57.670;12.006;2024-03-29T12:29:29;0.60;;;0.60;;
13012;SDS011;22580;57.670;12.006;2024-03-29T12:31:58;1.00;;;0.90;;
13012;SDS011;22580;57.670;12.006;2024-03-29T12:34:27;0.63;;;0.63;;
13012;SDS011;22580;57.670;12.006;2024-03-29T12:36:57;0.70;;;0.70;;
13012;SDS011;22580;57.670;12.006;2024-03-29T12:39:25;0.57;;;0.57;;
13012;SDS011;22580;57.670;12.006;2024-03-29T12:41:58;1.00;;;0.70;;
13012;SDS011;22580;57.670;12.006;2024-03-29T12:44:28;1.20;;;0.70;;
13012;SDS011;22580;57.670;12.006;2024-03-29T12:46:57;1.17;;;0.90;;
13012;SDS011;22580;57.670;12.006;2024-03-29T12:49:27;0.87;;;0.87;;
13012;SDS011;22580;57.670;12.006;2024-03-29T12:51:55;0.97;;;0.90;;
13012;SDS011;22580;57.670;12.006;2024-03-29T12:54:22;0.70;;;0.57;;
13012;SDS011;22580;57.670;12.006;2024-03-29T12:56:52;1.30;;;0.90;;
13012;SDS011;22580;57.670;12.006;2024-03-29T12:59:19;0.73;;;0.63;;
13012;SDS011;22580;57.670;12.006;2024-03-29T13:01:47;0.60;;;0.60;;
13012;SDS011;22580;57.670;12.006;2024-03-29T13:04:13;0.80;;;0.80;;
13012;SDS011;22580;57.670;12.006;2024-03-29T13:06:41;0.90;;;0.53;;
13012;SDS011;22580;57.670;12.006;2024-03-29T13:09:08;0.50;;;0.50;;
13012;SDS011;22580;57.670;12.006;2024-03-29T13:11:35;0.40;;;0.40;;
13012;SDS011;22580;57.670;12.006;2024-03-29T13:14:02;0.50;;;0.50;;
13012;SDS011;22580;57.670;12.006;2024-03-29T13:16:30;0.40;;;0.40;;
13012;SDS011;22580;57.670;12.006;2024-03-29T13:18:57;0.60;;;0.53;;
13012;SDS011;22580;57.670;12.006;2024-03-29T13:21:24;0.60;;;0.50;;
13012;SDS011;22580;57.670;12.006;2024-03-29T13:23:52;0.67;;;0.50;;
13012;SDS011;22580;57.670;12.006;2024-03-29T13:26:19;0.53;;;0.53;;
13012;SDS011;22580;57.670;12.006;2024-03-29T13:28:47;1.00;;;0.50;;
13012;SDS011;22580;57.670;12.006;2024-03-29T13:31:13;0.67;;;0.60;;
13012;SDS011;22580;57.670;12.006;2024-03-29T13:33:40;0.50;;;0.50;;
13012;SDS011;22580;57.670;12.006;2024-03-29T13:36:07;0.30;;;0.30;;
13012;SDS011;22580;57.670;12.006;2024-03-29T13:38:35;0.50;;;0.50;;
13012;SDS011;22580;57.670;12.006;2024-03-29T13:41:04;0.70;;;0.70;;
13012;SDS011;22580;57.670;12.006;2024-03-29T13:43:34;0.80;;;0.63;;
13012;SDS011;22580;57.670;12.006;2024-03-29T13:46:03;1.20;;;0.87;;
13012;SDS011;22580;57.670;12.006;2024-03-29T13:48:32;1.10;;;0.83;;
13012;SDS011;22580;57.670;12.006;2024-03-29T13:50:58;1.13;;;0.90;;
13012;SDS011;22580;57.670;12.006;2024-03-29T13:53:28;1.13;;;0.63;;
13012;SDS011;22580;57.670;12.006;2024-03-29T13:56:00;1.43;;;0.73;;
13012;SDS011;22580;57.670;12.006;2024-03-29T13:58:30;0.73;;;0.50;;
13012;SDS011;22580;57.670;12.006;2024-03-29T14:00:57;0.37;;;0.37;;
13012;SDS011;22580;57.670;12.006;2024-03-29T14:03:25;0.60;;;0.50;;
13012;SDS011;22580;57.670;12.006;2024-03-29T14:05:52;1.07;;;0.60;;
13012;SDS011;22580;57.670;12.006;2024-03-29T14:08:22;0.57;;;0.40;;
13012;SDS011;22580;57.670;12.006;2024-03-29T14:10:50;0.20;;;0.20;;
13012;SDS011;22580;57.670;12.006;2024-03-29T14:13:18;0.40;;;0.40;;
13012;SDS011;22580;57.670;12.006;2024-03-29T14:15:46;0.47;;;0.40;;
13012;SDS011;22580;57.670;12.006;2024-03-29T14:18:13;0.63;;;0.60;;
13012;SDS011;22580;57.670;12.006;2024-03-29T14:20:40;0.40;;;0.40;;
13012;SDS011;22580;57.670;12.006;2024-03-29T14:23:09;1.40;;;0.70;;
13012;SDS011;22580;57.670;12.006;2024-03-29T14:25:40;0.77;;;0.60;;
13012;SDS011;22580;57.670;12.006;2024-03-29T14:28:07;0.70;;;0.50;;
13012;SDS011;22580;57.670;12.006;2024-03-29T14:30:34;1.17;;;0.50;;
13012;SDS011;22580;57.670;12.006;2024-03-29T14:33:03;0.33;;;0.30;;
13012;SDS011;22580;57.670;12.006;2024-03-29T14:35:31;0.47;;;0.40;;
13012;SDS011;22580;57.670;12.006;2024-03-29T14:37:58;1.30;;;0.40;;
13012;SDS011;22580;57.670;12.006;2024-03-29T14:40:25;0.47;;;0.40;;